Time;durP1;ratioP1;P1;durP2;ratioP2;P2;SDS_P1;SDS_P2;PMS_P1;PMS_P2;Temp;Humidity;BMP_temperature;BMP_pressure;BME280_temperature;BME280_humidity;BME280_pressure;Samples;Min_cycle;Max_cycle;Signal;HPM_P1;HPM_P2
2023/08/27 00:00:28;;;;;;;16.55;7.70;;;15.60;99.90;;;;;;5104132;28;20379;-65
2023/08/27 00:02:54;;;;;;;13.25;7.93;;;15.60;99.90;;;;;;5102425;28;20403;-66
2023/08/27 00:05:20;;;;;;;11.52;7.18;;;15.70;99.90;;;;;;5099690;28;20070;-66
2023/08/27 00:07:45;;;;;;;17.08;7.43;;;15.70;99.90;;;;;;5100819;28;20181;-66
2023/08/27 00:10:12;;;;;;;11.23;6.60;;;15.70;99.90;;;;;;5100435;28;20023;-65
2023/08/27 00:12:37;;;;;;;14.20;9.18;;;15.70;99.90;;;;;;5102550;28;20016;-65
2023/08/27 00:15:04;;;;;;;15.00;8.50;;;15.80;99.90;;;;;;5099673;28;20035;-66
2023/08/27 00:17:33;;;;;;;12.98;8.60;;;15.90;99.90;;;;;;5102943;28;20111;-66
2023/08/27 00:19:58;;;;;;;11.88;7.18;;;15.90;99.90;;;;;;5100232;28;20034;-66
2023/08/27 00:22:24;;;;;;;12.82;7.95;;;16.00;99.90;;;;;;5100599;28;20106;-65
2023/08/27 00:24:50;;;;;;;11.45;7.35;;;16.10;99.90;;;;;;5101103;28;20031;-66
2023/08/27 00:27:15;;;;;;;15.02;8.13;;;16.10;99.90;;;;;;5100270;28;20428;-66
2023/08/27 00:29:41;;;;;;;14.55;7.53;;;16.10;99.90;;;;;;5100586;28;20061;-66
2023/08/27 00:32:07;;;;;;;13.18;7.00;;;16.00;99.90;;;;;;5101758;28;20468;-66
2023/08/27 00:34:35;;;;;;;14.70;7.30;;;16.00;99.90;;;;;;5101475;28;20024;-66
2023/08/27 00:37:01;;;;;;;14.32;7.68;;;16.00;99.90;;;;;;5101476;28;20487;-66
2023/08/27 00:39:29;;;;;;;13.30;7.88;;;15.90;99.90;;;;;;5100755;28;20067;-66
2023/08/27 00:41:56;;;;;;;16.15;8.20;;;15.90;99.90;;;;;;5101108;28;20031;-66
2023/08/27 00:44:22;;;;;;;15.60;8.65;;;15.90;99.90;;;;;;5104226;28;20031;-66
2023/08/27 00:46:48;;;;;;;16.60;9.05;;;15.80;99.90;;;;;;5105424;28;20038;-66
2023/08/27 00:49:17;;;;;;;16.92;9.10;;;15.80;99.90;;;;;;5106988;28;20028;-67
2023/08/27 00:51:46;;;;;;;12.70;8.02;;;15.80;99.90;;;;;;5107139;28;20088;-65
2023/08/27 00:54:12;;;;;;;14.25;8.55;;;15.80;99.90;;;;;;5095406;28;20495;-66
2023/08/27 00:56:44;;;;;;;16.92;9.50;;;15.80;99.90;;;;;;5095249;28;20043;-66
2023/08/27 00:59:11;;;;;;;16.08;9.48;;;15.80;99.90;;;;;;5095342;28;20020;-66
2023/08/27 01:01:39;;;;;;;15.45;8.85;;;15.80;99.90;;;;;;5094786;28;20151;-66
2023/08/27 01:04:05;;;;;;;14.15;8.82;;;15.70;99.90;;;;;;5105951;28;20016;-67
2023/08/27 01:06:31;;;;;;;15.82;8.18;;;15.80;99.90;;;;;;5106453;28;20027;-65
2023/08/27 01:09:09;;;;;;;16.67;9.70;;;15.70;99.90;;;;;;5105841;28;20031;-66
2023/08/27 01:12:04;;;;;;;16.35;9.45;;;15.70;99.90;;;;;;5106704;28;20115;-66
2023/08/27 01:14:34;;;;;;;19.67;8.95;;;15.80;99.90;;;;;;5106356;28;20020;-66
2023/08/27 01:17:03;;;;;;;18.67;9.50;;;15.70;99.90;;;;;;5102778;28;20127;-66
2023/08/27 01:19:30;;;;;;;14.30;8.85;;;15.80;99.90;;;;;;5100140;28;20024;-66
2023/08/27 01:21:56;;;;;;;14.98;8.55;;;15.80;99.90;;;;;;5102690;28;20027;-65
2023/08/27 01:24:21;;;;;;;14.48;9.10;;;15.70;99.90;;;;;;5100549;28;20396;-65
2023/08/27 01:27:05;;;;;;;14.77;9.23;;;15.70;99.90;;;;;;5105427;28;20076;-65
2023/08/27 01:29:42;;;;;;;12.60;8.52;;;15.70;99.90;;;;;;5104818;28;20032;-66
2023/08/27 01:32:28;;;;;;;17.00;10.10;;;15.70;99.90;;;;;;5106029;28;20031;-66
2023/08/27 01:34:55;;;;;;;18.50;10.00;;;15.60;99.90;;;;;;5106362;28;20172;-66
2023/08/27 01:37:21;;;;;;;17.98;10.32;;;15.70;99.90;;;;;;5104658;28;20119;-65
2023/08/27 01:39:46;;;;;;;17.77;10.98;;;15.60;99.90;;;;;;5106570;28;20113;-66
2023/08/27 01:42:13;;;;;;;18.52;10.93;;;15.60;99.90;;;;;;5114370;28;20050;-66
2023/08/27 01:44:39;;;;;;;20.13;11.25;;;15.60;99.90;;;;;;5115125;28;20047;-66
2023/08/27 01:47:05;;;;;;;16.58;10.38;;;15.60;99.90;;;;;;5115919;28;20404;-66
2023/08/27 01:49:31;;;;;;;15.98;10.38;;;15.60;99.90;;;;;;5116350;28;20019;-65
2023/08/27 01:51:57;;;;;;;17.75;9.45;;;15.60;99.90;;;;;;5116119;28;20035;-65
2023/08/27 01:54:22;;;;;;;17.77;9.77;;;15.60;99.90;;;;;;5114920;28;20020;-65
2023/08/27 01:56:48;;;;;;;16.80;9.88;;;15.60;99.90;;;;;;5115914;28;20032;-66
2023/08/27 01:59:13;;;;;;;17.67;9.82;;;15.60;99.90;;;;;;5116299;28;20081;-65
2023/08/27 02:01:39;;;;;;;16.92;9.75;;;15.50;99.90;;;;;;5116270;28;20097;-65
2023/08/27 02:04:04;;;;;;;16.98;9.55;;;15.50;99.90;;;;;;5116423;28;20034;-66
2023/08/27 02:06:30;;;;;;;18.90;9.82;;;15.50;99.90;;;;;;5115978;28;20036;-66
2023/08/27 02:08:56;;;;;;;16.67;9.00;;;15.60;99.90;;;;;;5115900;28;20022;-66
2023/08/27 02:11:21;;;;;;;15.52;9.57;;;15.60;99.90;;;;;;5115886;28;20417;-66
2023/08/27 02:13:47;;;;;;;17.88;10.02;;;15.60;99.90;;;;;;5116285;28;20535;-66
2023/08/27 02:16:13;;;;;;;17.30;9.98;;;15.60;99.90;;;;;;5115618;28;20040;-66
2023/08/27 02:18:38;;;;;;;18.98;11.52;;;15.60;99.90;;;;;;5115688;28;20076;-66
2023/08/27 02:21:04;;;;;;;15.40;9.75;;;15.60;99.90;;;;;;5115620;28;20078;-66
2023/08/27 02:23:29;;;;;;;14.48;8.80;;;15.70;99.90;;;;;;5116218;28;20027;-66
2023/08/27 02:25:55;;;;;;;16.63;9.32;;;15.60;99.90;;;;;;5115606;28;20032;-67
2023/08/27 02:28:20;;;;;;;14.73;9.13;;;15.60;99.90;;;;;;5115686;28;20042;-65
2023/08/27 02:30:56;;;;;;;15.70;9.05;;;15.60;99.90;;;;;;5115768;28;20191;-65
2023/08/27 02:33:22;;;;;;;19.05;9.95;;;15.60;99.90;;;;;;5115675;28;20026;-65
2023/08/27 02:35:48;;;;;;;16.67;9.75;;;15.60;99.90;;;;;;5115332;28;20476;-65
2023/08/27 02:38:14;;;;;;;16.92;8.93;;;15.60;99.90;;;;;;5114066;28;20032;-65
2023/08/27 02:40:40;;;;;;;17.60;9.68;;;15.50;99.90;;;;;;5115093;28;20111;-65
2023/08/27 02:43:05;;;;;;;17.38;9.45;;;15.50;99.90;;;;;;5115383;28;20035;-64
2023/08/27 02:45:31;;;;;;;17.65;9.73;;;15.50;99.90;;;;;;5114126;28;20035;-64
2023/08/27 02:47:56;;;;;;;17.15;9.15;;;15.50;99.90;;;;;;5114998;28;20020;-65
2023/08/27 02:50:22;;;;;;;19.30;9.75;;;15.40;99.90;;;;;;5115313;28;20024;-64
2023/08/27 02:52:47;;;;;;;16.65;9.85;;;15.40;99.90;;;;;;5115075;28;20517;-65
2023/08/27 02:55:13;;;;;;;17.65;9.48;;;15.40;99.90;;;;;;5114638;28;20027;-65
2023/08/27 02:57:39;;;;;;;15.00;8.40;;;15.30;99.90;;;;;;5115074;28;20107;-66
2023/08/27 03:00:05;;;;;;;15.23;6.97;;;15.40;99.90;;;;;;5115092;28;20494;-65
2023/08/27 03:02:30;;;;;;;13.00;5.18;;;15.40;99.90;;;;;;5114703;28;20062;-65
2023/08/27 03:05:01;;;;;;;13.93;4.72;;;15.30;99.90;;;;;;5114819;28;20036;-64
2023/08/27 03:07:26;;;;;;;10.60;3.10;;;15.30;99.90;;;;;;5115082;28;20779;-65
2023/08/27 03:09:52;;;;;;;15.25;2.60;;;15.20;99.90;;;;;;5114536;28;20043;-65
2023/08/27 03:12:17;;;;;;;11.10;2.58;;;15.20;99.90;;;;;;5114600;28;20043;-65
2023/08/27 03:14:43;;;;;;;6.55;1.90;;;15.00;99.90;;;;;;5114708;28;20028;-65
2023/08/27 03:17:08;;;;;;;10.77;2.30;;;15.00;99.90;;;;;;5114378;28;20036;-66
2023/08/27 03:19:34;;;;;;;10.77;2.00;;;14.90;99.90;;;;;;5114540;28;20092;-66
2023/08/27 03:22:00;;;;;;;10.32;2.63;;;14.80;99.90;;;;;;5114443;28;20161;-66
2023/08/27 03:24:25;;;;;;;12.77;2.05;;;14.70;99.90;;;;;;5114119;28;20069;-66
2023/08/27 03:26:52;;;;;;;9.55;1.90;;;14.60;99.90;;;;;;5114560;28;20387;-66
2023/08/27 03:29:17;;;;;;;9.07;1.83;;;14.50;99.90;;;;;;5114511;28;20459;-65
2023/08/27 03:31:43;;;;;;;14.98;2.70;;;14.40;99.90;;;;;;5114073;28;20034;-66
2023/08/27 03:34:09;;;;;;;13.73;2.22;;;14.40;99.90;;;;;;5114367;28;20032;-66
2023/08/27 03:36:35;;;;;;;10.73;2.42;;;14.40;99.90;;;;;;5114342;28;20459;-65
2023/08/27 03:39:01;;;;;;;9.02;2.10;;;14.30;99.90;;;;;;5112570;28;20467;-65
2023/08/27 03:41:26;;;;;;;19.08;3.50;;;14.40;99.90;;;;;;5114581;28;20101;-65
2023/08/27 03:43:52;;;;;;;14.48;2.40;;;14.30;99.90;;;;;;5114088;28;20053;-65
2023/08/27 03:46:18;;;;;;;13.23;2.65;;;14.30;99.90;;;;;;5114020;27;20066;-65
2023/08/27 03:48:43;;;;;;;16.33;2.70;;;14.20;99.90;;;;;;5113663;28;20026;-66
2023/08/27 03:51:09;;;;;;;14.73;2.45;;;14.10;99.90;;;;;;5113742;28;20078;-65
2023/08/27 03:53:36;;;;;;;16.20;2.38;;;14.10;99.90;;;;;;5113804;28;20460;-65
2023/08/27 03:56:03;;;;;;;11.50;2.30;;;14.00;99.90;;;;;;5113840;28;20529;-66
2023/08/27 03:58:29;;;;;;;9.75;2.13;;;13.90;99.90;;;;;;5113829;28;20020;-67
2023/08/27 04:00:54;;;;;;;8.18;1.98;;;13.80;99.90;;;;;;5113645;28;20027;-66
2023/08/27 04:03:20;;;;;;;7.65;2.08;;;13.80;99.90;;;;;;5112272;28;20052;-66
2023/08/27 04:05:49;;;;;;;9.95;2.47;;;13.70;99.90;;;;;;5114248;28;20042;-67
2023/08/27 04:08:15;;;;;;;11.85;1.80;;;13.70;99.90;;;;;;5113874;28;20042;-67
2023/08/27 04:10:48;;;;;;;11.25;2.10;;;13.70;99.90;;;;;;5113985;28;20034;-67
2023/08/27 04:13:13;;;;;;;10.80;2.05;;;13.70;99.90;;;;;;5113802;28;20035;-67
2023/08/27 04:15:39;;;;;;;11.15;1.80;;;13.70;99.90;;;;;;5113506;28;20027;-66
2023/08/27 04:18:04;;;;;;;5.82;1.45;;;13.70;99.90;;;;;;5113783;28;20028;-66
2023/08/27 04:20:30;;;;;;;5.82;1.80;;;13.70;99.90;;;;;;5113226;28;20026;-66
2023/08/27 04:22:56;;;;;;;8.27;2.08;;;13.70;99.90;;;;;;5113663;28;20031;-66
2023/08/27 04:25:21;;;;;;;9.85;2.10;;;13.70;99.90;;;;;;5113317;28;20081;-66
2023/08/27 04:27:47;;;;;;;8.32;2.08;;;13.70;99.90;;;;;;5113314;28;20034;-66
2023/08/27 04:30:13;;;;;;;8.32;1.95;;;13.70;99.90;;;;;;5113531;28;20026;-67
2023/08/27 04:32:38;;;;;;;5.82;1.80;;;13.70;99.90;;;;;;5113479;28;20082;-65
2023/08/27 04:35:04;;;;;;;8.63;1.77;;;13.80;99.90;;;;;;5113049;28;20024;-67
2023/08/27 04:37:30;;;;;;;7.45;1.60;;;13.80;99.90;;;;;;5113332;28;20080;-67
2023/08/27 04:39:56;;;;;;;9.57;1.92;;;13.70;99.90;;;;;;5112110;28;20412;-66
2023/08/27 04:42:21;;;;;;;4.15;1.58;;;13.70;99.90;;;;;;5113332;28;20028;-66
2023/08/27 04:44:47;;;;;;;10.02;2.22;;;13.70;99.90;;;;;;5113116;28;20027;-66
2023/08/27 04:47:12;;;;;;;15.07;2.05;;;13.70;99.90;;;;;;5113578;28;20024;-66
2023/08/27 04:49:38;;;;;;;3.45;1.63;;;13.70;99.90;;;;;;5112788;28;20059;-66
2023/08/27 04:52:04;;;;;;;6.18;1.60;;;13.70;99.90;;;;;;5113211;28;20102;-66
2023/08/27 04:54:29;;;;;;;8.13;1.77;;;13.70;99.90;;;;;;5113019;28;20110;-66
2023/08/27 04:56:55;;;;;;;6.20;1.35;;;13.60;99.90;;;;;;5112715;28;20035;-65
2023/08/27 04:59:20;;;;;;;9.05;1.80;;;13.60;99.90;;;;;;5112428;28;20112;-65
2023/08/27 05:01:46;;;;;;;2.67;1.48;;;13.50;99.90;;;;;;5112002;28;20062;-66
2023/08/27 05:04:12;;;;;;;7.22;1.65;;;13.50;99.90;;;;;;5112926;28;20036;-65
2023/08/27 05:06:37;;;;;;;3.63;1.45;;;13.60;99.90;;;;;;5113066;28;20102;-66
2023/08/27 05:09:03;;;;;;;4.18;1.42;;;13.60;99.90;;;;;;5112631;28;20020;-65
2023/08/27 05:11:28;;;;;;;10.10;1.75;;;13.60;99.90;;;;;;5112737;28;20024;-65
2023/08/27 05:13:54;;;;;;;3.00;1.30;;;13.60;99.90;;;;;;5112879;28;20055;-65
2023/08/27 05:16:19;;;;;;;4.60;1.20;;;13.60;99.90;;;;;;5112620;28;20031;-66
2023/08/27 05:18:45;;;;;;;4.85;1.23;;;13.60;99.90;;;;;;5112682;28;20028;-66
2023/08/27 05:21:10;;;;;;;6.50;1.73;;;13.70;99.90;;;;;;5112574;28;20027;-65
2023/08/27 05:23:36;;;;;;;4.72;1.30;;;13.70;99.90;;;;;;5112612;28;20367;-65
2023/08/27 05:26:02;;;;;;;3.92;1.52;;;13.70;99.90;;;;;;5112431;28;20092;-67
2023/08/27 05:28:27;;;;;;;4.03;1.40;;;13.70;99.90;;;;;;5112570;28;20158;-65
2023/08/27 05:30:53;;;;;;;4.72;1.50;;;13.80;99.90;;;;;;5112480;28;20092;-65
2023/08/27 05:33:18;;;;;;;4.28;1.30;;;13.80;99.90;;;;;;5112491;28;20031;-65
2023/08/27 05:35:44;;;;;;;4.32;1.10;;;13.70;99.90;;;;;;5112208;28;20046;-65
2023/08/27 05:38:09;;;;;;;4.68;1.65;;;13.70;99.90;;;;;;5112411;28;20024;-66
2023/08/27 05:40:35;;;;;;;5.63;1.10;;;13.70;99.90;;;;;;5112458;28;20084;-66
2023/08/27 05:43:01;;;;;;;2.88;1.15;;;13.70;99.90;;;;;;5112554;28;20023;-66
2023/08/27 05:45:26;;;;;;;2.85;1.02;;;13.70;99.90;;;;;;5112555;28;20106;-66
2023/08/27 05:47:52;;;;;;;3.20;0.95;;;13.70;99.90;;;;;;5112514;28;20431;-65
2023/08/27 05:50:17;;;;;;;5.07;1.20;;;13.70;99.90;;;;;;5112598;28;20076;-65
2023/08/27 05:52:43;;;;;;;3.33;1.00;;;13.70;99.90;;;;;;5111207;28;20023;-66
2023/08/27 05:55:08;;;;;;;4.10;1.00;;;13.70;99.90;;;;;;5112393;28;20027;-65
2023/08/27 05:57:34;;;;;;;4.00;1.00;;;13.80;99.90;;;;;;5112150;28;20131;-65
2023/08/27 05:59:59;;;;;;;3.47;1.00;;;13.80;99.90;;;;;;5112392;28;20031;-65
2023/08/27 06:02:26;;;;;;;6.05;1.30;;;13.80;99.90;;;;;;5105662;28;20052;-65
2023/08/27 06:04:51;;;;;;;2.03;1.23;;;13.80;99.90;;;;;;5098816;28;20541;-65
2023/08/27 06:07:17;;;;;;;3.10;1.02;;;13.90;99.90;;;;;;5096357;28;20054;-65
2023/08/27 06:09:43;;;;;;;2.72;1.00;;;13.90;99.90;;;;;;5100644;28;20110;-66
2023/08/27 06:12:08;;;;;;;5.60;1.30;;;14.00;99.90;;;;;;5104926;28;20027;-65
2023/08/27 06:14:34;;;;;;;3.97;1.20;;;14.10;99.90;;;;;;5105262;28;20054;-65
2023/08/27 06:17:00;;;;;;;2.85;1.13;;;14.20;99.90;;;;;;5104971;28;20036;-65
2023/08/27 06:19:25;;;;;;;5.88;1.33;;;14.30;99.90;;;;;;5106349;28;20051;-65
2023/08/27 06:21:51;;;;;;;7.60;1.58;;;14.40;99.90;;;;;;5104593;28;20090;-65
2023/08/27 06:24:16;;;;;;;4.15;1.00;;;14.60;99.90;;;;;;5105055;28;20022;-66
2023/08/27 06:26:42;;;;;;;3.38;1.10;;;14.90;99.90;;;;;;5104778;28;20036;-66
2023/08/27 06:29:07;;;;;;;1.60;0.90;;;15.10;99.90;;;;;;5105581;28;20035;-66
2023/08/27 06:31:33;;;;;;;5.30;1.20;;;15.40;99.90;;;;;;5104045;28;20024;-65
2023/08/27 06:33:59;;;;;;;3.58;0.93;;;15.70;99.90;;;;;;5105387;28;20467;-65
2023/08/27 06:36:24;;;;;;;6.88;1.75;;;15.90;99.90;;;;;;5104558;28;20518;-66
2023/08/27 06:38:50;;;;;;;3.40;1.00;;;16.30;99.90;;;;;;5105929;28;20115;-65
2023/08/27 06:41:15;;;;;;;3.97;0.95;;;16.40;99.90;;;;;;5104121;28;20125;-65
2023/08/27 06:43:41;;;;;;;2.75;1.00;;;16.40;99.90;;;;;;5104730;28;20484;-65
2023/08/27 06:46:08;;;;;;;3.05;1.00;;;16.30;99.90;;;;;;5104569;28;20031;-65
2023/08/27 06:48:34;;;;;;;3.00;1.40;;;16.30;99.90;;;;;;5104059;28;20070;-65
2023/08/27 06:50:59;;;;;;;3.22;1.30;;;16.30;99.90;;;;;;5105136;28;20095;-65
2023/08/27 06:53:25;;;;;;;2.58;0.95;;;16.40;99.90;;;;;;5103428;28;20032;-65
2023/08/27 06:55:51;;;;;;;4.13;1.30;;;16.50;99.90;;;;;;5105274;28;20046;-65
2023/08/27 06:58:16;;;;;;;4.47;1.25;;;16.80;99.90;;;;;;5105390;28;20023;-65
2023/08/27 07:00:44;;;;;;;4.68;0.93;;;17.20;99.90;;;;;;5103436;28;20024;-66
2023/08/27 07:03:10;;;;;;;3.03;0.82;;;17.70;99.90;;;;;;5103809;28;20094;-66
2023/08/27 07:05:35;;;;;;;3.65;1.08;;;18.30;99.90;;;;;;5105276;28;20479;-66
2023/08/27 07:08:01;;;;;;;2.45;1.00;;;18.90;99.90;;;;;;5103502;28;20063;-66
2023/08/27 07:10:26;;;;;;;1.95;0.95;;;19.30;99.90;;;;;;5104838;28;20024;-65
2023/08/27 07:12:52;;;;;;;2.75;1.10;;;19.50;99.90;;;;;;5104638;28;20103;-65
2023/08/27 07:15:18;;;;;;;4.05;1.00;;;19.90;99.90;;;;;;5103361;28;20032;-65
2023/08/27 07:17:43;;;;;;;5.13;1.20;;;20.00;99.90;;;;;;5103870;28;20031;-66
2023/08/27 07:20:11;;;;;;;4.22;1.05;;;20.00;99.90;;;;;;5103366;28;20035;-65
2023/08/27 07:22:37;;;;;;;2.97;1.13;;;19.90;99.90;;;;;;5104394;28;20387;-67
2023/08/27 07:25:03;;;;;;;5.10;1.80;;;19.50;99.90;;;;;;5103119;28;20032;-65
2023/08/27 07:27:29;;;;;;;4.65;1.27;;;19.30;99.90;;;;;;5103626;28;20031;-65
2023/08/27 07:29:55;;;;;;;2.65;1.27;;;19.50;99.90;;;;;;5104608;28;20421;-65
2023/08/27 07:32:20;;;;;;;6.38;1.70;;;19.70;99.90;;;;;;5102679;28;20468;-66
2023/08/27 07:34:46;;;;;;;2.47;1.38;;;19.70;99.90;;;;;;5103964;28;20046;-68
2023/08/27 07:37:11;;;;;;;4.20;1.90;;;19.70;99.90;;;;;;5104739;28;20395;-65
2023/08/27 07:39:37;;;;;;;2.88;1.92;;;19.60;99.90;;;;;;5095367;28;20119;-66
2023/08/27 07:42:03;;;;;;;3.63;1.65;;;19.60;99.90;;;;;;5111397;28;20053;-66
2023/08/27 07:44:28;;;;;;;2.33;1.63;;;19.60;99.90;;;;;;5114320;28;20562;-66
2023/08/27 07:46:54;;;;;;;3.42;1.33;;;19.60;99.90;;;;;;5113788;28;20024;-66
2023/08/27 07:49:19;;;;;;;3.58;1.90;;;19.80;99.90;;;;;;5113845;28;20060;-65
2023/08/27 07:51:46;;;;;;;4.18;1.70;;;19.80;99.90;;;;;;5114298;28;20032;-66
2023/08/27 07:54:11;;;;;;;5.63;1.77;;;20.10;99.90;;;;;;5114125;28;20027;-66
2023/08/27 07:56:37;;;;;;;6.72;2.10;;;20.60;99.90;;;;;;5114001;28;20030;-66
2023/08/27 07:59:02;;;;;;;9.23;4.13;;;21.20;99.90;;;;;;5101757;28;20514;-66
2023/08/27 08:01:28;;;;;;;7.18;2.92;;;21.20;99.90;;;;;;5092520;28;20035;-66
2023/08/27 08:03:53;;;;;;;4.05;2.08;;;21.40;99.90;;;;;;5092389;28;20058;-66
2023/08/27 08:06:19;;;;;;;6.20;2.35;;;21.30;99.90;;;;;;5093153;28;20043;-65
2023/08/27 08:08:44;;;;;;;11.40;3.67;;;21.00;99.90;;;;;;5100259;28;20035;-65
2023/08/27 08:11:10;;;;;;;6.15;2.83;;;20.80;99.90;;;;;;5113632;28;20046;-66
2023/08/27 08:13:39;;;;;;;7.20;3.25;;;20.90;99.90;;;;;;5108209;28;20112;-66
2023/08/27 08:16:05;;;;;;;7.43;3.08;;;20.90;99.90;;;;;;5092943;28;20036;-66
2023/08/27 08:18:30;;;;;;;7.38;2.95;;;20.90;99.90;;;;;;5092897;28;20383;-65
2023/08/27 08:20:58;;;;;;;8.40;4.18;;;21.10;99.90;;;;;;5092568;28;20035;-66
2023/08/27 08:23:25;;;;;;;8.07;2.90;;;21.30;99.90;;;;;;5093048;28;20032;-66
2023/08/27 08:25:51;;;;;;;5.93;2.85;;;21.50;99.90;;;;;;5092936;28;20039;-65
2023/08/27 08:28:16;;;;;;;9.02;4.60;;;21.60;99.90;;;;;;5092753;28;20038;-66
2023/08/27 08:30:48;;;;;;;10.75;4.57;;;21.70;99.90;;;;;;5091310;28;20028;-66
2023/08/27 08:33:14;;;;;;;;;;;21.60;99.90;;;;;;5093251;28;20032;-66
2023/08/27 08:35:41;;;;;;;4.40;1.73;;;21.40;99.90;;;;;;5106126;28;19915;-67
2023/08/27 08:38:07;;;;;;;5.00;2.03;;;21.40;99.90;;;;;;5094977;28;20028;-65
2023/08/27 08:40:58;;;;;;;4.43;2.25;;;21.50;99.90;;;;;;5095720;28;20028;-66
2023/08/27 08:43:47;;;;;;;9.15;2.42;;;21.90;99.90;;;;;;5111863;28;20049;-65
2023/08/27 08:46:15;;;;;;;5.63;2.08;;;22.10;99.90;;;;;;5113022;28;20031;-66
2023/08/27 08:48:42;;;;;;;5.28;1.80;;;22.10;99.90;;;;;;5113000;28;20036;-65
2023/08/27 08:51:10;;;;;;;7.82;2.03;;;21.80;99.90;;;;;;5113163;28;20024;-65
2023/08/27 08:53:41;;;;;;;4.35;2.38;;;21.70;99.90;;;;;;5112810;28;20039;-65
2023/08/27 08:56:14;;;;;;;4.85;1.65;;;21.50;99.90;;;;;;5112734;28;20040;-65
2023/08/27 08:58:44;;;;;;;4.00;2.13;;;21.50;99.90;;;;;;5092674;28;20027;-65
2023/08/27 09:01:12;;;;;;;6.63;3.30;;;21.50;99.90;;;;;;5092921;28;20024;-65
2023/08/27 09:03:39;;;;;;;6.28;2.72;;;21.70;99.90;;;;;;5092513;28;20048;-65
2023/08/27 09:06:07;;;;;;;2.75;1.33;;;22.00;99.90;;;;;;5092484;28;20032;-65
2023/08/27 09:08:36;;;;;;;3.22;1.70;;;22.30;99.90;;;;;;5092450;28;20036;-66
2023/08/27 09:11:02;;;;;;;1.88;1.10;;;22.30;99.90;;;;;;5092022;28;20383;-65
2023/08/27 09:13:29;;;;;;;4.05;1.55;;;21.90;99.50;;;;;;5092243;28;20047;-65
2023/08/27 09:15:55;;;;;;;1.60;0.85;;;21.60;99.90;;;;;;5091033;28;20097;-65
2023/08/27 09:18:20;;;;;;;3.28;1.05;;;21.50;99.90;;;;;;5092309;28;20399;-66
2023/08/27 09:20:47;;;;;;;2.00;1.08;;;21.30;99.90;;;;;;5092240;28;20057;-65
2023/08/27 09:23:13;;;;;;;4.85;2.15;;;21.20;99.90;;;;;;5092358;28;20111;-65
2023/08/27 09:25:39;;;;;;;2.35;1.00;;;21.20;99.90;;;;;;5092554;28;20030;-66
2023/08/27 09:28:08;;;;;;;2.08;1.10;;;21.10;99.90;;;;;;5092513;28;20020;-65
2023/08/27 09:30:34;;;;;;;3.33;1.77;;;20.90;99.90;;;;;;5092553;28;20452;-66
2023/08/27 09:33:01;;;;;;;11.73;6.45;;;21.00;99.90;;;;;;5105263;28;20038;-66
2023/08/27 09:35:41;;;;;;;5.97;3.28;;;21.60;99.90;;;;;;5101242;28;20452;-66
2023/08/27 09:38:10;;;;;;;7.93;3.75;;;22.10;99.90;;;;;;5092313;28;20040;-66
2023/08/27 09:40:36;;;;;;;9.95;5.15;;;22.50;99.70;;;;;;5091943;28;20387;-66
2023/08/27 09:43:09;;;;;;;3.35;1.63;;;23.20;99.00;;;;;;5091880;28;20028;-66
2023/08/27 09:45:35;;;;;;;4.55;2.30;;;23.60;98.50;;;;;;5092014;28;20472;-66
2023/08/27 09:48:03;;;;;;;2.78;1.25;;;24.10;97.70;;;;;;5095725;28;20028;-66
2023/08/27 09:50:29;;;;;;;2.58;1.63;;;24.70;97.50;;;;;;5096047;28;20101;-66
2023/08/27 09:53:05;;;;;;;3.58;1.55;;;25.30;96.20;;;;;;5095924;28;20028;-66
2023/08/27 09:55:33;;;;;;;2.75;1.20;;;25.60;96.50;;;;;;5096236;28;20094;-66
2023/08/27 09:57:59;;;;;;;4.05;2.15;;;25.70;96.30;;;;;;5095804;28;20036;-66
2023/08/27 10:00:27;;;;;;;4.07;1.90;;;25.40;96.70;;;;;;5096187;28;20028;-66
2023/08/27 10:02:53;;;;;;;5.35;1.70;;;25.40;97.20;;;;;;5096190;28;20101;-65
2023/08/27 10:05:28;;;;;;;7.63;2.97;;;25.10;97.80;;;;;;5096154;28;20024;-66
2023/08/27 10:08:02;;;;;;;5.30;1.88;;;24.60;98.50;;;;;;5095589;28;20418;-66
2023/08/27 10:10:28;;;;;;;8.15;2.58;;;23.90;99.30;;;;;;5095727;28;20063;-65
2023/08/27 10:12:55;;;;;;;4.88;1.58;;;23.60;99.80;;;;;;5094880;28;20063;-65
2023/08/27 10:15:27;;;;;;;6.63;1.80;;;23.20;99.90;;;;;;5095471;28;20097;-65
2023/08/27 10:17:53;;;;;;;9.65;4.47;;;23.00;99.90;;;;;;5095573;28;20048;-65
2023/08/27 10:20:20;;;;;;;5.30;2.78;;;22.60;99.90;;;;;;5095711;28;20040;-65
2023/08/27 10:22:47;;;;;;;8.25;2.60;;;22.20;99.90;;;;;;5095543;28;20024;-66
2023/08/27 10:25:16;;;;;;;8.02;2.33;;;22.00;99.90;;;;;;5094036;28;20355;-65
2023/08/27 10:27:42;;;;;;;7.07;2.38;;;21.80;99.90;;;;;;5095684;28;20027;-66
2023/08/27 10:30:08;;;;;;;6.45;1.70;;;21.70;99.90;;;;;;5095723;28;20032;-65
2023/08/27 10:32:33;;;;;;;4.00;1.50;;;22.30;99.90;;;;;;5094219;28;20032;-65
2023/08/27 10:35:00;;;;;;;8.93;1.90;;;23.10;99.90;;;;;;5102899;28;20098;-66
2023/08/27 10:37:28;;;;;;;4.43;1.50;;;23.60;99.80;;;;;;5115376;28;20399;-66
2023/08/27 10:39:55;;;;;;;7.53;2.03;;;23.90;99.30;;;;;;5101078;28;20032;-65
2023/08/27 10:42:33;;;;;;;5.05;1.70;;;23.80;99.20;;;;;;5115235;28;20172;-65
2023/08/27 10:45:19;;;;;;;7.38;1.80;;;23.80;99.50;;;;;;5115760;28;20039;-66
2023/08/27 10:48:07;;;;;;;3.45;1.58;;;23.80;99.50;;;;;;5115672;28;20038;-66
2023/08/27 10:50:46;;;;;;;12.32;1.73;;;23.80;99.50;;;;;;5115374;28;20031;-66
2023/08/27 10:53:12;;;;;;;8.18;2.08;;;23.70;99.70;;;;;;5115767;28;20408;-66
2023/08/27 10:55:40;;;;;;;3.92;1.40;;;23.80;99.90;;;;;;5115417;28;20053;-66
2023/08/27 10:58:23;;;;;;;4.63;1.25;;;24.00;99.50;;;;;;5096456;28;20057;-65
2023/08/27 11:01:10;;;;;;;4.15;1.00;;;24.10;98.40;;;;;;5095176;28;20024;-66
2023/08/27 11:03:57;;;;;;;4.68;1.20;;;24.50;97.80;;;;;;5098267;28;20109;-65
2023/08/27 11:06:46;;;;;;;7.07;1.10;;;24.60;97.70;;;;;;5094850;28;20036;-66
2023/08/27 11:09:27;;;;;;;7.70;1.20;;;24.70;97.90;;;;;;5094851;28;20024;-65
2023/08/27 11:12:02;;;;;;;2.70;1.27;;;24.80;98.90;;;;;;5094851;28;20036;-66
2023/08/27 11:14:28;;;;;;;5.10;1.33;;;24.90;99.10;;;;;;5094638;28;20035;-66
2023/08/27 11:17:00;;;;;;;8.15;1.58;;;24.70;99.40;;;;;;5094305;28;20036;-66
2023/08/27 11:19:36;;;;;;;8.63;1.30;;;24.70;99.40;;;;;;5094313;28;20024;-66
2023/08/27 11:22:13;;;;;;;2.60;0.85;;;24.50;99.10;;;;;;5094605;28;20506;-66
2023/08/27 11:24:44;;;;;;;5.80;1.42;;;23.90;98.50;;;;;;5094769;28;20020;-65
2023/08/27 11:27:11;;;;;;;5.30;1.70;;;23.30;99.30;;;;;;5094564;28;20024;-65
2023/08/27 11:29:42;;;;;;;4.80;2.60;;;22.70;99.80;;;;;;5094410;28;20035;-66
2023/08/27 11:32:09;;;;;;;3.53;1.42;;;22.30;99.10;;;;;;5093841;28;20053;-66
2023/08/27 11:34:37;;;;;;;2.10;1.38;;;21.90;99.40;;;;;;5097079;28;20051;-67
2023/08/27 11:37:05;;;;;;;3.25;1.90;;;21.90;99.90;;;;;;5114542;28;20156;-67
2023/08/27 11:39:33;;;;;;;2.80;1.95;;;22.00;99.90;;;;;;5096597;28;20028;-66
2023/08/27 11:41:59;;;;;;;3.33;1.20;;;22.10;99.90;;;;;;5094206;28;20028;-66
2023/08/27 11:44:24;;;;;;;4.15;1.50;;;22.20;99.50;;;;;;5093591;28;20108;-66
2023/08/27 11:46:51;;;;;;;5.00;0.88;;;22.40;99.50;;;;;;5092844;28;20456;-65
2023/08/27 11:49:35;;;;;;;7.22;1.70;;;22.70;99.40;;;;;;5092954;28;20422;-65
2023/08/27 11:52:02;;;;;;;5.15;1.42;;;23.10;99.00;;;;;;5093998;28;20162;-65
2023/08/27 11:54:32;;;;;;;3.67;1.67;;;23.80;98.90;;;;;;5096781;28;20084;-67
2023/08/27 11:56:58;;;;;;;9.38;4.25;;;24.50;98.60;;;;;;5114168;28;20040;-66
2023/08/27 11:59:28;;;;;;;5.10;1.67;;;24.70;98.60;;;;;;5098337;28;20325;-65
2023/08/27 12:01:55;;;;;;;3.13;1.90;;;24.90;98.80;;;;;;5093744;28;20479;-65
2023/08/27 12:04:21;;;;;;;5.72;1.80;;;25.50;98.20;;;;;;5093703;28;20131;-66
2023/08/27 12:06:51;;;;;;;7.68;2.70;;;26.30;97.50;;;;;;5093905;28;20039;-66
2023/08/27 12:09:24;;;;;;;6.47;3.05;;;26.90;96.20;;;;;;5092579;28;20032;-66
2023/08/27 12:11:50;;;;;;;4.72;2.22;;;26.40;96.10;;;;;;5093254;28;20032;-66
2023/08/27 12:14:23;;;;;;;4.88;2.13;;;25.90;96.40;;;;;;5093521;28;20426;-66
2023/08/27 12:16:49;;;;;;;1.83;1.50;;;25.50;96.60;;;;;;5092425;28;20369;-66
2023/08/27 12:19:19;;;;;;;5.53;1.77;;;25.10;96.50;;;;;;5092298;28;20479;-66
2023/08/27 12:21:56;;;;;;;7.50;1.80;;;24.90;96.70;;;;;;5093311;28;20149;-66
2023/08/27 12:24:43;;;;;;;2.80;1.13;;;25.10;97.00;;;;;;5093474;28;20042;-67
2023/08/27 12:27:22;;;;;;;4.28;1.80;;;25.80;96.70;;;;;;5092054;28;20106;-66
2023/08/27 12:29:53;;;;;;;3.80;1.55;;;25.70;96.40;;;;;;5092920;28;20118;-66
2023/08/27 12:32:21;;;;;;;7.95;1.90;;;25.40;96.70;;;;;;5092992;28;20032;-66
2023/08/27 12:34:49;;;;;;;3.25;1.73;;;25.40;96.80;;;;;;5098817;28;20033;-65
2023/08/27 12:37:17;;;;;;;4.00;1.60;;;25.90;96.60;;;;;;5113221;28;20039;-65
2023/08/27 12:39:43;;;;;;;6.13;2.00;;;26.00;96.10;;;;;;5097023;28;20034;-65
2023/08/27 12:42:11;;;;;;;8.38;2.10;;;25.90;95.80;;;;;;5092654;28;20032;-65
2023/08/27 12:44:38;;;;;;;10.93;2.85;;;25.20;96.70;;;;;;5092791;28;20032;-65